Terminal Aerodrome Forecast
Issued by NWS Sterling, VA

Current Version | Previous Version | Graphics & Text | Print | Product List | Glossary On
Versions: 1 2 3 4 5 6 7 8 9 10 11 12 13 14 15 16 17 18 19 20 21 22 23 24 25
000
FTUS41 KLWX 251127
TAFDCA
TAF
KDCA 251127Z 2512/2612 VRB04KT P6SM VCSH OVC040
     FM251500 15008KT P6SM OVC035
     FM251800 16010KT P6SM BKN025 OVC050
     FM260000 16005KT P6SM BKN025 OVC050
     FM260900 19006KT P6SM OVC010 WS020/22040KT=

USA.gov is the U.S. government's official web portal to all federal, state and local government web resources and services.